Time;durP1;ratioP1;P1;durP2;ratioP2;P2;SDS_P1;SDS_P2;PMS_P1;PMS_P2;Temp;Humidity;BMP_temperature;BMP_pressure;BME280_temperature;BME280_humidity;BME280_pressure;Samples;Min_cycle;Max_cycle;Signal;HPM_P1;HPM_P2
2023/04/08 00:00:40;;;;;;;282.23;47.70;;;4.80;99.90;;;;;;2612815;54;20134;-71
2023/04/08 00:06:27;;;;;;;87.60;31.90;;;4.60;99.90;;;;;;2612202;54;20123;-70
2023/04/08 00:12:15;;;;;;;102.33;28.70;;;4.50;99.90;;;;;;2610992;54;20246;-72
2023/04/08 00:18:03;;;;;;;90.77;27.43;;;4.40;99.90;;;;;;2610478;54;20138;-70
2023/04/08 00:23:51;;;;;;;62.33;24.50;;;4.30;99.90;;;;;;2611970;39;20643;-73
2023/04/08 00:29:38;;;;;;;136.80;33.40;;;4.20;99.90;;;;;;2613355;54;20398;-70
2023/04/08 00:35:26;;;;;;;50.30;26.63;;;4.30;99.90;;;;;;2612911;39;20584;-71
2023/04/08 00:41:14;;;;;;;34.83;22.50;;;4.20;99.90;;;;;;2612127;54;20686;-71
2023/04/08 00:47:03;;;;;;;38.07;23.23;;;4.30;99.90;;;;;;2612763;54;20434;-70
2023/04/08 00:52:51;;;;;;;37.37;24.30;;;4.40;99.90;;;;;;2613405;54;21020;-71
2023/04/08 00:58:39;;;;;;;34.47;24.00;;;4.50;99.90;;;;;;2611534;54;20125;-70
2023/04/08 01:11:13;;;;;;;175.77;44.53;;;4.80;99.90;;;;;;2611114;54;20440;-71
2023/04/08 01:20:24;;;;;;;288.13;46.97;;;4.90;99.90;;;;;;2612155;54;20392;-70
2023/04/08 01:26:20;;;;;;;462.37;56.40;;;4.90;99.90;;;;;;2612332;54;20371;-70
2023/04/08 01:32:08;;;;;;;338.87;45.70;;;4.80;99.90;;;;;;2611754;54;20564;-70
2023/04/08 01:37:56;;;;;;;177.80;40.87;;;4.90;99.90;;;;;;2612920;54;20383;-71
2023/04/08 01:43:45;;;;;;;330.47;63.60;;;4.90;99.90;;;;;;2613822;54;20864;-70
2023/04/08 01:52:57;;;;;;;255.90;52.90;;;5.00;99.90;;;;;;2613586;54;20386;-70
2023/04/08 01:58:51;;;;;;;263.03;45.20;;;5.00;99.90;;;;;;2613547;54;20399;-71
2023/04/08 02:04:38;;;;;;;354.37;66.97;;;5.00;99.90;;;;;;2613375;54;20450;-70
2023/04/08 02:10:26;;;;;;;314.23;58.87;;;5.10;99.90;;;;;;2614014;54;20134;-70
2023/04/08 02:29:31;;;;;;;572.10;92.27;;;5.30;99.90;;;;;;2610157;54;20390;-70
2023/04/08 02:35:19;;;;;;;411.03;71.77;;;5.30;99.90;;;;;;2611558;54;20413;-71
2023/04/08 02:41:06;;;;;;;493.47;71.00;;;5.30;99.90;;;;;;2611201;54;20369;-70
2023/04/08 02:46:53;;;;;;;583.60;84.30;;;5.40;99.90;;;;;;2611379;54;20289;-75
2023/04/08 02:53:17;;;;;;;555.57;84.30;;;5.40;99.90;;;;;;2611777;54;20848;-74
2023/04/08 02:56:04;;;;;;;547.87;80.20;;;5.50;99.90;;;;;;2611576;54;20466;-74
2023/04/08 02:59:07;;;;;;;538.20;95.47;;;5.40;99.90;;;;;;2611547;54;20403;-73
2023/04/08 03:01:32;;;;;;;344.93;72.37;;;5.40;99.90;;;;;;2612267;54;20496;-73
2023/04/08 03:07:20;;;;;;;403.40;63.00;;;5.40;99.90;;;;;;2613057;54;20135;-74
2023/04/08 03:13:08;;;;;;;488.53;85.57;;;5.30;99.90;;;;;;2613435;39;20513;-73
2023/04/08 03:18:56;;;;;;;491.93;84.90;;;5.40;99.90;;;;;;2612971;54;20134;-74
2023/04/08 03:24:44;;;;;;;628.87;97.33;;;5.40;99.90;;;;;;2612617;54;21233;-74
2023/04/08 03:30:31;;;;;;;422.73;75.60;;;5.40;99.90;;;;;;2613144;54;20122;-74
2023/04/08 03:36:19;;;;;;;692.10;98.00;;;5.40;99.90;;;;;;2613544;54;20229;-74
2023/04/08 03:42:07;;;;;;;447.00;73.17;;;5.40;99.90;;;;;;2613668;54;20672;-73
2023/04/08 03:47:55;;;;;;;406.93;77.37;;;5.50;99.90;;;;;;2613578;54;20150;-73
2023/04/08 03:53:43;;;;;;;509.10;95.10;;;5.60;99.90;;;;;;2612000;54;20209;-74
2023/04/08 03:59:32;;;;;;;362.30;78.90;;;5.60;99.90;;;;;;2612392;54;20158;-74
2023/04/08 04:05:20;;;;;;;257.63;51.83;;;5.60;99.90;;;;;;2613379;54;20391;-74
2023/04/08 04:11:07;;;;;;;121.87;37.27;;;5.70;99.90;;;;;;2613450;54;20130;-74
2023/04/08 04:16:55;;;;;;;317.17;59.13;;;5.70;99.90;;;;;;2613956;39;20560;-74
2023/04/08 04:22:43;;;;;;;320.90;59.40;;;5.60;99.90;;;;;;2612458;54;20115;-73
2023/04/08 04:28:31;;;;;;;257.67;62.23;;;5.60;99.90;;;;;;2613044;54;20114;-73
2023/04/08 04:34:18;;;;;;;345.50;71.43;;;5.60;99.90;;;;;;2613148;54;20916;-73
2023/04/08 04:40:06;;;;;;;281.60;67.33;;;5.50;99.90;;;;;;2614422;39;20538;-73
2023/04/08 04:45:55;;;;;;;453.80;86.17;;;5.50;99.90;;;;;;2613177;54;20391;-74
2023/04/08 04:56:04;;;;;;;290.23;67.83;;;5.60;99.90;;;;;;2612174;54;20958;-74
2023/04/08 05:01:51;;;;;;;410.43;76.90;;;5.70;99.90;;;;;;2610268;54;20391;-74
2023/04/08 05:07:39;;;;;;;289.57;67.67;;;5.70;99.90;;;;;;2611477;54;20122;-74
2023/04/08 05:13:28;;;;;;;404.07;71.20;;;5.60;99.90;;;;;;2613347;54;20162;-74
2023/04/08 05:19:15;;;;;;;516.67;95.23;;;5.60;99.90;;;;;;2612622;54;21075;-73
2023/04/08 05:25:04;;;;;;;310.50;66.90;;;5.60;99.90;;;;;;2613386;54;20246;-74
2023/04/08 05:30:53;;;;;;;310.57;65.47;;;5.70;99.90;;;;;;2614745;39;20741;-74
2023/04/08 05:36:41;;;;;;;454.90;90.40;;;5.60;99.90;;;;;;2613491;54;20419;-73
2023/04/08 05:42:29;;;;;;;418.50;79.07;;;5.60;99.90;;;;;;2614158;54;20499;-72
2023/04/08 05:48:17;;;;;;;156.63;44.67;;;5.70;99.90;;;;;;2613380;54;21056;-74
2023/04/08 05:51:35;;;;;;;411.17;82.90;;;5.70;99.90;;;;;;2611402;54;20408;-74
2023/04/08 05:54:01;;;;;;;324.30;69.33;;;5.70;99.90;;;;;;2612150;54;20163;-73
2023/04/08 05:59:49;;;;;;;316.90;57.67;;;5.70;99.90;;;;;;2612891;54;20126;-73
2023/04/08 06:05:36;;;;;;;202.43;54.60;;;5.80;99.90;;;;;;2613224;54;20349;-73
2023/04/08 06:11:24;;;;;;;309.70;66.17;;;5.70;99.90;;;;;;2612015;54;20175;-74
2023/04/08 06:17:11;;;;;;;292.63;71.80;;;5.90;99.90;;;;;;2613224;54;20134;-73
2023/04/08 06:22:59;;;;;;;294.07;68.77;;;5.90;99.90;;;;;;2613145;54;20143;-74
2023/04/08 06:28:47;;;;;;;339.07;73.57;;;5.90;99.90;;;;;;2613331;54;20135;-74
2023/04/08 06:34:35;;;;;;;201.67;50.37;;;6.00;99.90;;;;;;2613803;39;20736;-74
2023/04/08 06:40:23;;;;;;;279.90;62.83;;;6.20;99.90;;;;;;2614267;54;20142;-74
2023/04/08 06:46:10;;;;;;;252.40;61.73;;;6.10;99.90;;;;;;2611959;54;20942;-74
2023/04/08 06:56:04;;;;;;;133.93;44.27;;;6.00;99.90;;;;;;2610032;39;20837;-74
2023/04/08 07:01:51;;;;;;;77.93;35.40;;;5.80;99.90;;;;;;2608758;54;20396;-73
2023/04/08 07:07:39;;;;;;;76.33;38.00;;;5.80;99.90;;;;;;2614225;54;20223;-74
2023/04/08 07:13:26;;;;;;;99.10;40.10;;;5.80;99.90;;;;;;2612766;54;20134;-73
2023/04/08 07:19:14;;;;;;;66.93;32.73;;;6.00;99.90;;;;;;2610811;54;20149;-74
2023/04/08 07:25:02;;;;;;;53.07;31.53;;;6.00;99.90;;;;;;2609849;54;20195;-73
2023/04/08 07:30:49;;;;;;;40.87;29.80;;;6.00;99.90;;;;;;2610316;54;20142;-74
2023/04/08 07:36:38;;;;;;;43.10;30.90;;;6.30;99.90;;;;;;2611950;54;20652;-73
2023/04/08 07:42:26;;;;;;;41.87;29.77;;;6.40;99.90;;;;;;2612775;54;20366;-73
2023/04/08 07:48:13;;;;;;;44.20;34.50;;;6.60;99.90;;;;;;2612215;39;20532;-74
2023/04/08 07:51:33;;;;;;;48.77;36.80;;;6.90;99.90;;;;;;2608885;54;20424;-74
2023/04/08 07:53:59;;;;;;;50.73;37.13;;;6.40;99.90;;;;;;2607628;47;20180;-73
2023/04/08 07:59:47;;;;;;;49.47;36.77;;;6.80;99.90;;;;;;2605868;54;20230;-74
2023/04/08 08:05:36;;;;;;;36.23;31.83;;;7.10;99.90;;;;;;2605998;39;20609;-74
2023/04/08 08:11:23;;;;;;;35.10;31.10;;;7.50;99.90;;;;;;2609997;54;20391;-74
2023/04/08 08:17:11;;;;;;;29.20;25.83;;;7.40;99.90;;;;;;2610397;54;20182;-75
2023/04/08 08:22:59;;;;;;;34.97;27.60;;;7.20;99.90;;;;;;2608235;39;20570;-74
2023/04/08 08:28:47;;;;;;;31.87;28.60;;;7.60;99.90;;;;;;2609699;54;20249;-74
2023/04/08 08:34:35;;;;;;;38.97;33.17;;;7.70;99.90;;;;;;2609525;54;20158;-74
2023/04/08 08:40:22;;;;;;;35.00;31.43;;;8.10;99.90;;;;;;2607814;54;20146;-75
2023/04/08 08:46:11;;;;;;;39.13;32.07;;;8.20;99.90;;;;;;2609562;54;20895;-75
2023/04/08 08:56:05;;;;;;;32.07;28.93;;;8.50;99.90;;;;;;2608812;54;20513;-76
2023/04/08 09:01:52;;;;;;;31.17;27.97;;;8.40;99.90;;;;;;2611634;39;20836;-75
2023/04/08 09:07:40;;;;;;;30.93;25.73;;;8.30;99.90;;;;;;2607752;54;20125;-74
2023/04/08 09:13:36;;;;;;;24.77;22.30;;;8.60;99.90;;;;;;2613121;39;20615;-75
2023/04/08 09:19:23;;;;;;;24.73;22.40;;;9.40;99.90;;;;;;2613704;54;20383;-76
2023/04/08 09:31:53;;;;;;;21.00;19.13;;;9.80;99.90;;;;;;2610782;54;21457;-76
2023/04/08 09:37:41;;;;;;;20.97;19.07;;;9.90;99.90;;;;;;2611684;54;20406;-76
2023/04/08 09:43:29;;;;;;;19.90;17.77;;;9.60;99.90;;;;;;2611513;54;20149;-76
2023/04/08 10:05:21;;;;;;;16.30;14.63;;;9.00;99.90;;;;;;2614093;54;20403;-75
2023/04/08 10:11:09;;;;;;;17.50;15.90;;;9.00;99.90;;;;;;2613551;54;20425;-75
2023/04/08 10:17:29;;;;;;;18.13;16.13;;;8.90;99.90;;;;;;2612461;54;20375;-75
2023/04/08 10:23:17;;;;;;;17.97;16.23;;;9.10;99.90;;;;;;2612941;54;20580;-73
2023/04/08 10:29:18;;;;;;;15.83;14.20;;;8.90;99.90;;;;;;2614342;54;20379;-74
2023/04/08 10:35:05;;;;;;;17.03;15.53;;;8.90;99.90;;;;;;2610188;54;20395;-74
2023/04/08 10:40:53;;;;;;;17.63;15.77;;;9.00;99.90;;;;;;2611019;54;20862;-73
2023/04/08 10:46:42;;;;;;;17.10;15.30;;;9.30;99.90;;;;;;2609792;39;20787;-73
2023/04/08 10:52:30;;;;;;;18.57;16.77;;;9.70;99.90;;;;;;2610263;54;20408;-72
2023/04/08 10:58:18;;;;;;;16.97;15.17;;;9.30;99.90;;;;;;2609198;54;20391;-76
2023/04/08 11:04:18;;;;;;;17.87;16.13;;;9.50;99.90;;;;;;2610549;54;20162;-77
2023/04/08 11:10:06;;;;;;;25.60;22.90;;;9.80;99.90;;;;;;2611576;54;20403;-77
2023/04/08 11:15:55;;;;;;;17.90;16.10;;;10.90;99.90;;;;;;2609973;54;20415;-76
2023/04/08 11:21:44;;;;;;;25.57;21.67;;;11.80;99.90;;;;;;2608341;54;20384;-77
2023/04/08 11:27:32;;;;;;;18.93;17.13;;;11.90;99.90;;;;;;2606785;54;21105;-76
2023/04/08 11:33:21;;;;;;;17.87;16.50;;;12.10;99.90;;;;;;2607296;54;21097;-77
2023/04/08 11:39:10;;;;;;;17.77;15.87;;;11.20;99.90;;;;;;2608596;54;20395;-76
2023/04/08 11:44:58;;;;;;;15.93;14.83;;;11.30;99.90;;;;;;2612789;54;20407;-77
2023/04/08 11:50:46;;;;;;;17.77;16.40;;;11.20;99.90;;;;;;2612300;54;20133;-77
2023/04/08 11:53:50;;;;;;;18.73;17.17;;;11.40;99.90;;;;;;2610493;47;20435;-77
2023/04/08 11:56:21;;;;;;;17.00;15.67;;;11.30;99.90;;;;;;2611527;46;20221;-76
2023/04/08 12:02:10;;;;;;;18.83;17.23;;;11.40;99.90;;;;;;2612478;39;20781;-75
2023/04/08 12:07:58;;;;;;;19.10;17.70;;;11.90;99.90;;;;;;2611845;54;20387;-76
2023/04/08 12:13:46;;;;;;;19.33;17.73;;;12.10;99.90;;;;;;2612724;54;20133;-77
2023/04/08 12:19:33;;;;;;;18.30;17.00;;;11.90;99.90;;;;;;2612251;54;20383;-76
2023/04/08 12:25:21;;;;;;;18.87;17.27;;;12.30;99.90;;;;;;2609687;54;20254;-76
2023/04/08 12:31:09;;;;;;;16.93;15.53;;;11.40;99.90;;;;;;2612014;54;20142;-76
2023/04/08 12:36:57;;;;;;;16.50;15.20;;;11.80;99.90;;;;;;2609949;54;20146;-77
2023/04/08 12:42:45;;;;;;;16.43;14.63;;;11.40;99.90;;;;;;2609779;39;20484;-77
2023/04/08 12:48:32;;;;;;;16.60;15.27;;;11.10;99.90;;;;;;2610212;54;20129;-76
2023/04/08 12:58:24;;;;;;;15.57;14.37;;;11.50;99.90;;;;;;2607229;54;20386;-77
2023/04/08 13:04:11;;;;;;;16.43;15.07;;;11.30;99.90;;;;;;2608048;46;20406;-77
2023/04/08 13:09:59;;;;;;;16.43;15.13;;;11.70;99.90;;;;;;2610138;54;20123;-77
2023/04/08 13:15:47;;;;;;;16.40;15.20;;;11.70;99.90;;;;;;2610838;54;20171;-76
2023/04/08 13:21:35;;;;;;;17.17;15.83;;;11.70;99.90;;;;;;2608423;54;20375;-76
2023/04/08 13:27:23;;;;;;;18.00;16.50;;;11.90;99.90;;;;;;2605881;54;20134;-76
2023/04/08 13:33:11;;;;;;;18.90;17.50;;;11.90;99.90;;;;;;2606858;54;20176;-77
2023/04/08 13:38:58;;;;;;;19.30;17.70;;;11.50;99.90;;;;;;2610107;54;20134;-76
2023/04/08 13:44:46;;;;;;;18.07;16.57;;;12.40;99.90;;;;;;2606961;54;20615;-78
2023/04/08 13:50:34;;;;;;;20.57;18.87;;;12.70;99.90;;;;;;2608603;54;20695;-76
2023/04/08 13:53:50;;;;;;;23.70;21.80;;;12.40;99.90;;;;;;2609358;54;20487;-76
2023/04/08 13:56:16;;;;;;;18.07;16.57;;;12.10;99.90;;;;;;2609738;39;20723;-76
2023/04/08 14:02:04;;;;;;;18.67;17.10;;;12.00;99.90;;;;;;2609990;54;20142;-77
2023/04/08 14:07:52;;;;;;;19.93;18.30;;;11.90;99.90;;;;;;2612776;54;20366;-76
2023/04/08 14:13:39;;;;;;;19.93;18.40;;;11.90;99.90;;;;;;2612940;54;20130;-76
2023/04/08 14:19:27;;;;;;;21.30;19.33;;;11.90;99.90;;;;;;2610363;54;20135;-77
2023/04/08 14:25:15;;;;;;;20.17;18.47;;;11.50;99.90;;;;;;2607917;54;20145;-76
2023/04/08 14:31:03;;;;;;;17.93;16.50;;;11.50;99.90;;;;;;2608712;54;20143;-77
2023/04/08 14:36:51;;;;;;;18.80;17.30;;;11.40;99.90;;;;;;2606921;54;20414;-77
2023/04/08 14:42:39;;;;;;;18.10;16.63;;;11.40;99.90;;;;;;2607918;54;20275;-77
2023/04/08 14:48:29;;;;;;;18.70;17.10;;;11.40;99.90;;;;;;2612202;39;20510;-76
2023/04/08 14:58:23;;;;;;;20.83;19.03;;;11.20;99.90;;;;;;2612000;39;20805;-77
2023/04/08 15:04:10;;;;;;;24.90;22.40;;;11.20;99.90;;;;;;2613369;54;20654;-77
2023/04/08 15:09:58;;;;;;;26.70;24.20;;;11.60;99.90;;;;;;2613942;54;20134;-77
2023/04/08 15:15:46;;;;;;;27.03;24.53;;;11.80;99.90;;;;;;2614052;54;20122;-77
2023/04/08 15:21:34;;;;;;;32.37;28.90;;;11.20;99.90;;;;;;2611093;54;20122;-76
2023/04/08 15:27:21;;;;;;;27.70;24.90;;;11.60;99.90;;;;;;2613305;46;20293;-77
2023/04/08 15:33:09;;;;;;;21.80;20.00;;;11.50;99.90;;;;;;2612665;54;20126;-76
2023/04/08 15:38:56;;;;;;;23.07;21.07;;;11.30;99.90;;;;;;2613974;31;20794;-77
2023/04/08 15:44:44;;;;;;;22.10;20.07;;;11.00;99.90;;;;;;2613675;54;20163;-76
2023/04/08 15:50:32;;;;;;;23.57;21.37;;;11.20;99.90;;;;;;2612229;54;20158;-76
2023/04/08 15:53:51;;;;;;;27.40;24.80;;;11.10;99.90;;;;;;2613151;54;20423;-76
2023/04/08 15:56:17;;;;;;;24.47;22.07;;;11.00;99.90;;;;;;2612943;47;20182;-77
2023/04/08 16:02:05;;;;;;;26.63;24.13;;;10.90;99.90;;;;;;2612225;54;20467;-77
2023/04/08 16:07:53;;;;;;;21.93;19.87;;;11.20;99.90;;;;;;2611401;54;20166;-77
2023/04/08 16:13:41;;;;;;;24.10;21.53;;;11.20;99.90;;;;;;2611934;54;20149;-76
2023/04/08 16:19:28;;;;;;;23.10;21.10;;;11.20;99.90;;;;;;2612621;54;20460;-77
2023/04/08 16:25:16;;;;;;;21.70;19.73;;;11.10;99.90;;;;;;2613215;54;20154;-77
2023/04/08 16:31:05;;;;;;;20.73;18.73;;;11.10;99.90;;;;;;2614527;39;20538;-77
2023/04/08 16:36:53;;;;;;;21.97;19.87;;;11.10;99.90;;;;;;2612593;54;20945;-76
2023/04/08 16:42:41;;;;;;;23.20;21.10;;;11.10;99.90;;;;;;2613704;54;20414;-77
2023/04/08 16:48:29;;;;;;;25.83;23.43;;;11.40;99.90;;;;;;2614500;39;20534;-76
2023/04/08 16:58:25;;;;;;;23.50;21.20;;;11.60;99.90;;;;;;2614013;54;20379;-76
2023/04/08 17:04:13;;;;;;;25.13;22.53;;;11.50;99.90;;;;;;2612109;54;20433;-76
2023/04/08 17:10:00;;;;;;;31.00;28.10;;;11.40;99.90;;;;;;2611591;54;20675;-77
2023/04/08 17:15:48;;;;;;;31.43;27.13;;;11.20;99.90;;;;;;2609438;31;20622;-76
2023/04/08 17:21:36;;;;;;;33.60;30.17;;;11.10;99.90;;;;;;2611833;54;20154;-76
2023/04/08 17:27:24;;;;;;;31.60;26.40;;;11.00;99.90;;;;;;2610701;54;20399;-77
2023/04/08 17:33:12;;;;;;;30.23;25.87;;;11.00;99.90;;;;;;2611773;54;20165;-76
2023/04/08 17:39:00;;;;;;;29.00;24.67;;;10.90;99.90;;;;;;2611562;54;20431;-77
2023/04/08 17:44:47;;;;;;;29.23;25.10;;;10.90;99.90;;;;;;2609990;54;21010;-77
2023/04/08 17:50:35;;;;;;;31.07;27.37;;;10.80;99.90;;;;;;2610452;54;20178;-77
2023/04/08 17:56:35;;;;;;;36.00;28.60;;;10.80;99.90;;;;;;2607568;54;20155;-77
2023/04/08 18:02:22;;;;;;;34.77;31.07;;;10.70;99.90;;;;;;2611680;54;20132;-76
2023/04/08 18:08:09;;;;;;;42.13;32.90;;;10.60;99.90;;;;;;2608802;54;20276;-77
2023/04/08 18:13:57;;;;;;;44.77;34.17;;;10.60;99.90;;;;;;2609334;54;20251;-77
2023/04/08 18:19:44;;;;;;;42.40;34.50;;;10.50;99.90;;;;;;2608474;54;20131;-78
2023/04/08 18:25:33;;;;;;;41.33;32.73;;;10.50;99.90;;;;;;2608270;54;20123;-77
2023/04/08 18:31:20;;;;;;;54.13;35.77;;;10.40;99.90;;;;;;2607830;54;20387;-77
2023/04/08 18:37:09;;;;;;;39.67;31.80;;;10.40;99.90;;;;;;2609067;54;20125;-77
2023/04/08 18:43:00;;;;;;;35.07;26.97;;;10.30;99.90;;;;;;2607117;54;20371;-78
2023/04/08 18:48:49;;;;;;;35.90;27.00;;;10.30;99.90;;;;;;2606449;54;20370;-78
2023/04/08 18:58:23;;;;;;;35.20;27.70;;;10.20;99.90;;;;;;2607429;54;20423;-77
2023/04/08 19:04:11;;;;;;;36.37;29.53;;;10.20;99.90;;;;;;2612677;39;20759;-76
2023/04/08 19:09:58;;;;;;;38.40;30.40;;;10.20;99.90;;;;;;2611642;54;20166;-78
2023/04/08 19:15:46;;;;;;;41.07;33.43;;;10.10;99.90;;;;;;2610646;54;20846;-76
2023/04/08 19:21:36;;;;;;;43.00;32.10;;;10.10;99.90;;;;;;2608389;54;20127;-78
2023/04/08 19:27:24;;;;;;;46.50;33.00;;;10.10;99.90;;;;;;2612755;54;20390;-77
2023/04/08 19:33:12;;;;;;;41.70;31.03;;;10.10;99.90;;;;;;2612620;54;20122;-77
2023/04/08 19:39:02;;;;;;;40.33;33.13;;;10.10;99.90;;;;;;2612521;54;20399;-78
2023/04/08 19:44:50;;;;;;;43.50;30.20;;;10.10;99.90;;;;;;2612566;54;20428;-77
2023/04/08 19:50:38;;;;;;;36.60;28.87;;;10.10;99.90;;;;;;2610180;54;20411;-77
2023/04/08 19:53:52;;;;;;;36.33;27.57;;;10.00;99.90;;;;;;2610280;54;20419;-78
2023/04/08 19:56:17;;;;;;;34.37;24.40;;;10.00;99.90;;;;;;2611210;54;20422;-77
2023/04/08 20:02:05;;;;;;;42.43;28.33;;;10.00;99.90;;;;;;2611075;54;20130;-78
2023/04/08 20:07:53;;;;;;;38.90;29.67;;;10.00;99.90;;;;;;2611681;54;20173;-77
2023/04/08 20:13:40;;;;;;;41.73;29.80;;;9.90;99.90;;;;;;2610689;54;21005;-77
2023/04/08 20:19:28;;;;;;;41.47;29.87;;;9.90;99.90;;;;;;2613246;54;20123;-77
2023/04/08 20:25:16;;;;;;;39.10;27.50;;;9.90;99.90;;;;;;2612561;54;20126;-77
2023/04/08 20:31:03;;;;;;;44.53;30.90;;;9.90;99.90;;;;;;2613061;54;20351;-76
2023/04/08 20:36:51;;;;;;;34.20;25.87;;;9.80;99.90;;;;;;2612625;54;20506;-78
2023/04/08 20:42:39;;;;;;;34.10;26.80;;;9.80;99.90;;;;;;2612445;54;20387;-77
2023/04/08 20:48:28;;;;;;;36.70;28.73;;;9.70;99.90;;;;;;2612708;54;20126;-77
2023/04/08 20:58:25;;;;;;;40.10;28.00;;;9.70;99.90;;;;;;2613011;54;20395;-77
2023/04/08 21:04:12;;;;;;;33.40;28.20;;;9.60;99.90;;;;;;2614829;39;21163;-77
2023/04/08 21:10:00;;;;;;;34.67;28.60;;;9.20;99.90;;;;;;2614175;54;20188;-77
2023/04/08 21:12:44;;;;;;;38.80;31.13;;;9.10;99.90;;;;;;2613968;54;20404;-78
2023/04/08 21:15:10;;;;;;;39.43;29.87;;;9.00;99.90;;;;;;2614019;54;20411;-77
2023/04/08 21:20:58;;;;;;;35.83;29.80;;;8.60;99.90;;;;;;2614797;54;20162;-76
2023/04/08 21:26:46;;;;;;;41.33;32.47;;;8.60;99.90;;;;;;2615183;39;20512;-77
2023/04/08 21:32:33;;;;;;;38.63;31.50;;;8.40;99.90;;;;;;2614685;54;20664;-77
2023/04/08 21:38:21;;;;;;;43.27;30.20;;;8.30;99.90;;;;;;2614551;54;20170;-76
2023/04/08 21:44:09;;;;;;;40.83;32.37;;;8.20;99.90;;;;;;2614791;54;20242;-77
2023/04/08 21:49:57;;;;;;;44.27;32.07;;;8.10;99.90;;;;;;2614602;54;20158;-78
2023/04/08 21:59:06;;;;;;;40.63;31.33;;;7.80;99.90;;;;;;2614739;54;20390;-78
2023/04/08 22:04:55;;;;;;;39.53;29.60;;;7.60;99.90;;;;;;2614776;54;20142;-77
2023/04/08 22:10:43;;;;;;;44.17;31.23;;;7.40;99.90;;;;;;2614237;54;20502;-78
2023/04/08 22:16:31;;;;;;;43.13;31.03;;;7.20;99.90;;;;;;2612413;54;20146;-78
2023/04/08 22:22:18;;;;;;;47.43;33.07;;;7.00;99.90;;;;;;2614248;54;20194;-77
2023/04/08 22:28:06;;;;;;;45.53;30.97;;;6.60;99.90;;;;;;2614249;54;20693;-77
2023/04/08 22:33:54;;;;;;;46.40;34.00;;;6.50;99.90;;;;;;2613744;54;20419;-78
2023/04/08 22:39:41;;;;;;;51.40;38.50;;;6.50;99.90;;;;;;2613893;46;20146;-78
2023/04/08 22:45:29;;;;;;;51.40;36.60;;;6.80;99.90;;;;;;2614662;54;20119;-78
2023/04/08 22:51:17;;;;;;;51.83;38.17;;;6.70;99.90;;;;;;2613782;46;20920;-76
2023/04/08 22:54:38;;;;;;;52.77;37.37;;;6.70;99.90;;;;;;2610927;54;20391;-77
2023/04/08 22:57:04;;;;;;;60.97;40.70;;;6.60;99.90;;;;;;2612141;54;20246;-77
2023/04/08 23:02:52;;;;;;;50.37;37.00;;;6.40;99.90;;;;;;2612641;54;20146;-78
2023/04/08 23:08:40;;;;;;;53.53;37.50;;;6.40;99.90;;;;;;2612107;54;20262;-77
2023/04/08 23:14:27;;;;;;;49.90;34.67;;;6.40;99.90;;;;;;2608884;39;20532;-78
2023/04/08 23:20:15;;;;;;;45.90;33.97;;;6.40;99.90;;;;;;2608079;54;20134;-77
2023/04/08 23:26:03;;;;;;;49.03;33.40;;;6.50;99.90;;;;;;2608259;54;20130;-77
2023/04/08 23:31:51;;;;;;;51.03;33.70;;;6.60;99.90;;;;;;2613232;54;20154;-77
2023/04/08 23:37:39;;;;;;;54.70;33.70;;;6.60;99.90;;;;;;2611338;54;20130;-77
2023/04/08 23:43:26;;;;;;;55.80;34.37;;;6.40;99.90;;;;;;2611151;39;20496;-77
2023/04/08 23:49:14;;;;;;;47.93;32.13;;;6.30;99.90;;;;;;2608403;54;20126;-78
2023/04/08 23:59:11;;;;;;;54.70;34.13;;;6.20;99.90;;;;;;2608057;54;20403;-77
